sensor_id;sensor_type;location;lat;lon;timestamp;temperature;humidity
210;DHT22;90;48.810;9.120;2022-07-04T00:01:00;22.90;62.20
210;DHT22;90;48.810;9.120;2022-07-04T00:03:28;22.90;62.00
210;DHT22;90;48.810;9.120;2022-07-04T00:05:55;22.80;62.20
210;DHT22;90;48.810;9.120;2022-07-04T00:08:22;22.90;62.20
210;DHT22;90;48.810;9.120;2022-07-04T00:10:49;22.80;62.30
210;DHT22;90;48.810;9.120;2022-07-04T00:13:17;22.70;62.60
210;DHT22;90;48.810;9.120;2022-07-04T00:15:44;22.70;62.70
210;DHT22;90;48.810;9.120;2022-07-04T00:18:11;22.70;62.70
210;DHT22;90;48.810;9.120;2022-07-04T00:20:39;22.70;62.80
210;DHT22;90;48.810;9.120;2022-07-04T00:23:06;22.70;62.60
210;DHT22;90;48.810;9.120;2022-07-04T00:25:33;22.70;62.30
210;DHT22;90;48.810;9.120;2022-07-04T00:28:00;22.70;62.20
210;DHT22;90;48.810;9.120;2022-07-04T00:30:27;22.60;62.20
210;DHT22;90;48.810;9.120;2022-07-04T00:32:54;22.50;62.50
210;DHT22;90;48.810;9.120;2022-07-04T00:35:21;22.50;62.50
210;DHT22;90;48.810;9.120;2022-07-04T00:37:50;22.50;62.20
210;DHT22;90;48.810;9.120;2022-07-04T00:40:17;22.50;62.20
210;DHT22;90;48.810;9.120;2022-07-04T00:42:44;22.40;62.60
210;DHT22;90;48.810;9.120;2022-07-04T00:45:11;22.40;62.70
210;DHT22;90;48.810;9.120;2022-07-04T00:47:38;22.30;62.80
210;DHT22;90;48.810;9.120;2022-07-04T00:50:05;22.30;62.80
210;DHT22;90;48.810;9.120;2022-07-04T00:52:32;22.30;62.90
210;DHT22;90;48.810;9.120;2022-07-04T00:55:01;22.20;63.00
210;DHT22;90;48.810;9.120;2022-07-04T00:57:28;22.20;63.20
210;DHT22;90;48.810;9.120;2022-07-04T00:59:55;22.20;63.30
210;DHT22;90;48.810;9.120;2022-07-04T01:02:22;22.20;63.30
210;DHT22;90;48.810;9.120;2022-07-04T01:04:50;22.10;63.60
210;DHT22;90;48.810;9.120;2022-07-04T01:07:17;22.10;63.70
210;DHT22;90;48.810;9.120;2022-07-04T01:09:44;22.10;63.50
210;DHT22;90;48.810;9.120;2022-07-04T01:12:26;22.10;63.60
210;DHT22;90;48.810;9.120;2022-07-04T01:14:53;22.10;63.50
210;DHT22;90;48.810;9.120;2022-07-04T01:17:20;22.00;63.80
210;DHT22;90;48.810;9.120;2022-07-04T01:19:47;22.00;64.00
210;DHT22;90;48.810;9.120;2022-07-04T01:22:16;22.00;63.80
210;DHT22;90;48.810;9.120;2022-07-04T01:24:44;22.00;63.80
210;DHT22;90;48.810;9.120;2022-07-04T01:27:11;22.00;63.90
210;DHT22;90;48.810;9.120;2022-07-04T01:29:38;21.90;64.10
210;DHT22;90;48.810;9.120;2022-07-04T01:32:06;21.90;64.10
210;DHT22;90;48.810;9.120;2022-07-04T01:34:34;22.00;64.10
210;DHT22;90;48.810;9.120;2022-07-04T01:37:01;22.00;64.00
210;DHT22;90;48.810;9.120;2022-07-04T01:39:30;22.00;63.90
210;DHT22;90;48.810;9.120;2022-07-04T01:41:57;21.90;64.00
210;DHT22;90;48.810;9.120;2022-07-04T01:44:24;22.00;63.90
210;DHT22;90;48.810;9.120;2022-07-04T01:46:51;22.00;63.70
210;DHT22;90;48.810;9.120;2022-07-04T01:49:19;21.90;64.00
210;DHT22;90;48.810;9.120;2022-07-04T01:51:47;21.90;64.30
210;DHT22;90;48.810;9.120;2022-07-04T01:54:14;21.90;64.30
210;DHT22;90;48.810;9.120;2022-07-04T01:56:43;21.90;64.40
210;DHT22;90;48.810;9.120;2022-07-04T01:59:10;21.80;64.60
210;DHT22;90;48.810;9.120;2022-07-04T02:01:38;21.80;64.90
210;DHT22;90;48.810;9.120;2022-07-04T02:04:05;21.70;64.90
210;DHT22;90;48.810;9.120;2022-07-04T02:06:33;21.60;65.70
210;DHT22;90;48.810;9.120;2022-07-04T02:09:00;21.60;65.30
210;DHT22;90;48.810;9.120;2022-07-04T02:11:45;21.60;65.10
210;DHT22;90;48.810;9.120;2022-07-04T02:14:29;21.60;65.00
210;DHT22;90;48.810;9.120;2022-07-04T02:16:57;21.50;65.20
210;DHT22;90;48.810;9.120;2022-07-04T02:19:24;21.40;65.40
210;DHT22;90;48.810;9.120;2022-07-04T02:21:51;21.40;65.50
210;DHT22;90;48.810;9.120;2022-07-04T02:24:19;21.40;65.60
210;DHT22;90;48.810;9.120;2022-07-04T02:26:47;21.40;65.10
210;DHT22;90;48.810;9.120;2022-07-04T02:29:15;21.40;65.30
210;DHT22;90;48.810;9.120;2022-07-04T02:31:42;21.40;65.40
210;DHT22;90;48.810;9.120;2022-07-04T02:34:10;21.40;65.40
210;DHT22;90;48.810;9.120;2022-07-04T02:36:37;21.40;65.20
210;DHT22;90;48.810;9.120;2022-07-04T02:39:06;21.30;65.50
210;DHT22;90;48.810;9.120;2022-07-04T02:41:33;21.40;65.30
210;DHT22;90;48.810;9.120;2022-07-04T02:44:02;21.40;65.30
210;DHT22;90;48.810;9.120;2022-07-04T02:46:29;21.30;65.60
210;DHT22;90;48.810;9.120;2022-07-04T02:48:58;21.20;65.50
210;DHT22;90;48.810;9.120;2022-07-04T02:51:25;21.20;65.50
210;DHT22;90;48.810;9.120;2022-07-04T02:53:52;21.20;65.60
210;DHT22;90;48.810;9.120;2022-07-04T02:56:19;21.20;65.70
210;DHT22;90;48.810;9.120;2022-07-04T02:58:46;21.10;65.90
210;DHT22;90;48.810;9.120;2022-07-04T03:01:14;21.10;66.00
210;DHT22;90;48.810;9.120;2022-07-04T03:03:41;21.10;66.10
210;DHT22;90;48.810;9.120;2022-07-04T03:06:10;21.10;66.20
210;DHT22;90;48.810;9.120;2022-07-04T03:08:38;21.00;66.40
210;DHT22;90;48.810;9.120;2022-07-04T03:11:05;21.00;66.70
210;DHT22;90;48.810;9.120;2022-07-04T03:13:32;21.00;66.70
210;DHT22;90;48.810;9.120;2022-07-04T03:15:59;21.00;66.40
210;DHT22;90;48.810;9.120;2022-07-04T03:18:28;21.10;66.30
210;DHT22;90;48.810;9.120;2022-07-04T03:20:55;21.10;66.50
210;DHT22;90;48.810;9.120;2022-07-04T03:23:22;21.00;66.70
210;DHT22;90;48.810;9.120;2022-07-04T03:25:49;21.00;66.80
210;DHT22;90;48.810;9.120;2022-07-04T03:28:16;21.00;66.80
210;DHT22;90;48.810;9.120;2022-07-04T03:30:43;21.10;66.60
210;DHT22;90;48.810;9.120;2022-07-04T03:33:10;21.10;66.60
210;DHT22;90;48.810;9.120;2022-07-04T03:35:39;21.00;66.60
210;DHT22;90;48.810;9.120;2022-07-04T03:38:06;21.00;66.60
210;DHT22;90;48.810;9.120;2022-07-04T03:40:33;21.00;66.70
210;DHT22;90;48.810;9.120;2022-07-04T03:43:01;20.90;67.00
210;DHT22;90;48.810;9.120;2022-07-04T03:45:29;20.90;67.10
210;DHT22;90;48.810;9.120;2022-07-04T03:47:56;20.90;67.10
210;DHT22;90;48.810;9.120;2022-07-04T03:50:23;20.80;67.30
210;DHT22;90;48.810;9.120;2022-07-04T03:52:51;20.90;67.10
210;DHT22;90;48.810;9.120;2022-07-04T03:55:18;20.70;67.30
210;DHT22;90;48.810;9.120;2022-07-04T03:57:45;20.70;67.50
210;DHT22;90;48.810;9.120;2022-07-04T04:00:13;20.70;67.40
210;DHT22;90;48.810;9.120;2022-07-04T04:02:40;20.70;67.70
210;DHT22;90;48.810;9.120;2022-07-04T04:05:08;20.70;67.40
210;DHT22;90;48.810;9.120;2022-07-04T04:07:55;20.60;67.40
210;DHT22;90;48.810;9.120;2022-07-04T04:10:22;20.60;67.50
210;DHT22;90;48.810;9.120;2022-07-04T04:12:50;20.50;67.90
210;DHT22;90;48.810;9.120;2022-07-04T04:15:20;20.50;68.20
210;DHT22;90;48.810;9.120;2022-07-04T04:17:47;20.60;67.80
210;DHT22;90;48.810;9.120;2022-07-04T04:20:14;20.80;67.40
210;DHT22;90;48.810;9.120;2022-07-04T04:22:42;20.80;67.10
210;DHT22;90;48.810;9.120;2022-07-04T04:25:12;20.70;67.50
210;DHT22;90;48.810;9.120;2022-07-04T04:27:40;20.70;67.80
210;DHT22;90;48.810;9.120;2022-07-04T04:30:08;20.80;67.80
210;DHT22;90;48.810;9.120;2022-07-04T04:32:35;20.80;67.80
210;DHT22;90;48.810;9.120;2022-07-04T04:35:08;20.80;67.80
210;DHT22;90;48.810;9.120;2022-07-04T04:37:40;20.80;67.40
210;DHT22;90;48.810;9.120;2022-07-04T04:40:11;20.90;67.30
210;DHT22;90;48.810;9.120;2022-07-04T04:42:45;20.80;67.00
210;DHT22;90;48.810;9.120;2022-07-04T04:45:14;20.90;67.20
210;DHT22;90;48.810;9.120;2022-07-04T04:47:41;20.80;66.80
210;DHT22;90;48.810;9.120;2022-07-04T04:50:09;20.90;66.20
210;DHT22;90;48.810;9.120;2022-07-04T04:52:39;20.80;66.20
210;DHT22;90;48.810;9.120;2022-07-04T04:55:07;20.80;66.20
210;DHT22;90;48.810;9.120;2022-07-04T04:57:35;20.80;65.80
210;DHT22;90;48.810;9.120;2022-07-04T05:00:04;20.80;65.90
210;DHT22;90;48.810;9.120;2022-07-04T05:02:32;20.70;66.40
210;DHT22;90;48.810;9.120;2022-07-04T05:05:02;20.70;66.00
210;DHT22;90;48.810;9.120;2022-07-04T05:07:29;20.70;66.50
210;DHT22;90;48.810;9.120;2022-07-04T05:09:59;20.70;66.40
210;DHT22;90;48.810;9.120;2022-07-04T05:12:27;20.80;66.10
210;DHT22;90;48.810;9.120;2022-07-04T05:15:05;20.80;65.70
210;DHT22;90;48.810;9.120;2022-07-04T05:17:32;20.70;66.40
210;DHT22;90;48.810;9.120;2022-07-04T05:20:02;20.80;66.20
210;DHT22;90;48.810;9.120;2022-07-04T05:22:29;20.70;65.60
210;DHT22;90;48.810;9.120;2022-07-04T05:25:05;20.80;66.20
210;DHT22;90;48.810;9.120;2022-07-04T05:27:34;20.80;65.90
210;DHT22;90;48.810;9.120;2022-07-04T05:30:05;20.90;65.50
210;DHT22;90;48.810;9.120;2022-07-04T05:32:32;20.90;66.00
210;DHT22;90;48.810;9.120;2022-07-04T05:35:00;20.90;66.30
210;DHT22;90;48.810;9.120;2022-07-04T05:37:28;20.90;65.80
210;DHT22;90;48.810;9.120;2022-07-04T05:39:56;20.90;65.60
210;DHT22;90;48.810;9.120;2022-07-04T05:42:23;20.90;65.70
210;DHT22;90;48.810;9.120;2022-07-04T05:44:50;20.90;65.50
210;DHT22;90;48.810;9.120;2022-07-04T05:47:18;21.00;65.50
210;DHT22;90;48.810;9.120;2022-07-04T05:49:49;21.00;64.60
210;DHT22;90;48.810;9.120;2022-07-04T05:52:16;21.10;64.70
210;DHT22;90;48.810;9.120;2022-07-04T05:54:43;21.10;64.30
210;DHT22;90;48.810;9.120;2022-07-04T05:57:10;21.10;64.70
210;DHT22;90;48.810;9.120;2022-07-04T05:59:37;21.20;64.10
210;DHT22;90;48.810;9.120;2022-07-04T06:02:07;21.20;63.70
210;DHT22;90;48.810;9.120;2022-07-04T06:04:36;21.30;64.00
210;DHT22;90;48.810;9.120;2022-07-04T06:07:03;21.30;64.10
210;DHT22;90;48.810;9.120;2022-07-04T06:09:30;21.40;63.60
210;DHT22;90;48.810;9.120;2022-07-04T06:11:58;21.40;63.70
210;DHT22;90;48.810;9.120;2022-07-04T06:14:25;21.40;63.80
210;DHT22;90;48.810;9.120;2022-07-04T06:16:52;21.50;63.40
210;DHT22;90;48.810;9.120;2022-07-04T06:19:20;21.50;63.30
210;DHT22;90;48.810;9.120;2022-07-04T06:21:51;21.60;63.50
210;DHT22;90;48.810;9.120;2022-07-04T06:24:18;21.70;63.30
210;DHT22;90;48.810;9.120;2022-07-04T06:26:45;21.70;63.30
210;DHT22;90;48.810;9.120;2022-07-04T06:29:13;21.80;62.90
210;DHT22;90;48.810;9.120;2022-07-04T06:31:40;21.90;62.00
210;DHT22;90;48.810;9.120;2022-07-04T06:34:07;21.80;62.30
210;DHT22;90;48.810;9.120;2022-07-04T06:36:53;21.80;62.20
210;DHT22;90;48.810;9.120;2022-07-04T06:39:20;21.80;62.10
210;DHT22;90;48.810;9.120;2022-07-04T06:41:47;21.80;62.20
210;DHT22;90;48.810;9.120;2022-07-04T06:44:14;21.90;62.50
210;DHT22;90;48.810;9.120;2022-07-04T06:46:41;22.00;62.10
210;DHT22;90;48.810;9.120;2022-07-04T06:49:10;21.80;62.30
210;DHT22;90;48.810;9.120;2022-07-04T06:51:37;21.90;63.10
210;DHT22;90;48.810;9.120;2022-07-04T06:54:06;22.10;62.80
210;DHT22;90;48.810;9.120;2022-07-04T06:56:33;22.20;62.20
210;DHT22;90;48.810;9.120;2022-07-04T06:59:00;22.30;62.40
210;DHT22;90;48.810;9.120;2022-07-04T07:01:29;22.30;62.10
210;DHT22;90;48.810;9.120;2022-07-04T07:03:56;22.50;62.00
210;DHT22;90;48.810;9.120;2022-07-04T07:06:23;22.60;61.20
210;DHT22;90;48.810;9.120;2022-07-04T07:08:50;22.60;60.40
210;DHT22;90;48.810;9.120;2022-07-04T07:11:19;22.50;61.10
210;DHT22;90;48.810;9.120;2022-07-04T07:13:47;22.50;62.00
210;DHT22;90;48.810;9.120;2022-07-04T07:16:16;22.50;61.40
210;DHT22;90;48.810;9.120;2022-07-04T07:18:44;22.60;61.50
210;DHT22;90;48.810;9.120;2022-07-04T07:21:11;22.40;62.00
210;DHT22;90;48.810;9.120;2022-07-04T07:23:39;22.60;62.00
210;DHT22;90;48.810;9.120;2022-07-04T07:26:07;22.50;61.20
210;DHT22;90;48.810;9.120;2022-07-04T07:28:36;22.50;61.20
210;DHT22;90;48.810;9.120;2022-07-04T07:31:03;22.50;61.70
210;DHT22;90;48.810;9.120;2022-07-04T07:33:30;22.50;61.70
210;DHT22;90;48.810;9.120;2022-07-04T07:35:57;22.40;61.90
210;DHT22;90;48.810;9.120;2022-07-04T07:38:25;22.30;62.40
210;DHT22;90;48.810;9.120;2022-07-04T07:40:52;22.30;62.40
210;DHT22;90;48.810;9.120;2022-07-04T07:43:19;22.30;62.40
210;DHT22;90;48.810;9.120;2022-07-04T07:45:48;22.40;63.00
210;DHT22;90;48.810;9.120;2022-07-04T07:48:15;22.50;62.30
210;DHT22;90;48.810;9.120;2022-07-04T07:50:42;22.40;62.00
210;DHT22;90;48.810;9.120;2022-07-04T07:53:10;22.40;62.90
210;DHT22;90;48.810;9.120;2022-07-04T07:55:39;22.40;62.10
210;DHT22;90;48.810;9.120;2022-07-04T07:58:09;22.50;62.70
210;DHT22;90;48.810;9.120;2022-07-04T08:00:36;22.60;62.60
210;DHT22;90;48.810;9.120;2022-07-04T08:03:05;22.70;61.70
210;DHT22;90;48.810;9.120;2022-07-04T08:05:52;22.60;61.70
210;DHT22;90;48.810;9.120;2022-07-04T08:08:21;22.60;61.40
210;DHT22;90;48.810;9.120;2022-07-04T08:10:49;22.60;60.90
210;DHT22;90;48.810;9.120;2022-07-04T08:13:17;22.50;61.50
210;DHT22;90;48.810;9.120;2022-07-04T08:15:44;22.30;62.10
210;DHT22;90;48.810;9.120;2022-07-04T08:18:13;22.20;62.40
210;DHT22;90;48.810;9.120;2022-07-04T08:20:40;22.20;62.50
210;DHT22;90;48.810;9.120;2022-07-04T08:23:07;22.00;62.50
210;DHT22;90;48.810;9.120;2022-07-04T08:25:35;22.10;62.70
210;DHT22;90;48.810;9.120;2022-07-04T08:28:03;22.10;62.80
210;DHT22;90;48.810;9.120;2022-07-04T08:30:30;22.20;62.70
210;DHT22;90;48.810;9.120;2022-07-04T08:32:57;22.30;62.30
210;DHT22;90;48.810;9.120;2022-07-04T08:35:26;22.30;62.20
210;DHT22;90;48.810;9.120;2022-07-04T08:37:53;22.40;62.10
210;DHT22;90;48.810;9.120;2022-07-04T08:40:22;22.40;61.90
210;DHT22;90;48.810;9.120;2022-07-04T08:42:49;22.60;62.00
210;DHT22;90;48.810;9.120;2022-07-04T08:45:18;22.80;61.90
210;DHT22;90;48.810;9.120;2022-07-04T08:47:50;22.90;61.20
210;DHT22;90;48.810;9.120;2022-07-04T08:50:29;23.00;61.00
210;DHT22;90;48.810;9.120;2022-07-04T08:52:59;23.00;60.70
210;DHT22;90;48.810;9.120;2022-07-04T08:55:28;23.10;60.60
210;DHT22;90;48.810;9.120;2022-07-04T08:58:24;23.10;60.40
210;DHT22;90;48.810;9.120;2022-07-04T09:01:01;23.20;60.50
210;DHT22;90;48.810;9.120;2022-07-04T09:03:29;23.20;60.40
210;DHT22;90;48.810;9.120;2022-07-04T09:06:00;23.30;60.10
210;DHT22;90;48.810;9.120;2022-07-04T09:08:27;23.40;59.70
210;DHT22;90;48.810;9.120;2022-07-04T09:10:55;23.60;59.30
210;DHT22;90;48.810;9.120;2022-07-04T09:13:24;23.80;59.00
210;DHT22;90;48.810;9.120;2022-07-04T09:15:52;23.90;58.90
210;DHT22;90;48.810;9.120;2022-07-04T09:18:22;24.00;58.40
210;DHT22;90;48.810;9.120;2022-07-04T09:20:50;23.80;58.30
210;DHT22;90;48.810;9.120;2022-07-04T09:23:20;23.80;58.90
210;DHT22;90;48.810;9.120;2022-07-04T09:25:48;23.80;58.90
210;DHT22;90;48.810;9.120;2022-07-04T09:28:26;24.00;58.80
210;DHT22;90;48.810;9.120;2022-07-04T09:30:54;24.00;58.40
210;DHT22;90;48.810;9.120;2022-07-04T09:33:22;24.10;58.40
210;DHT22;90;48.810;9.120;2022-07-04T09:35:49;24.10;58.20
210;DHT22;90;48.810;9.120;2022-07-04T09:38:23;24.20;57.80
210;DHT22;90;48.810;9.120;2022-07-04T09:40:52;24.20;57.50
210;DHT22;90;48.810;9.120;2022-07-04T09:43:37;24.20;58.00
210;DHT22;90;48.810;9.120;2022-07-04T09:46:04;24.30;58.00
210;DHT22;90;48.810;9.120;2022-07-04T09:48:49;24.30;57.80
210;DHT22;90;48.810;9.120;2022-07-04T09:51:35;24.30;58.00
210;DHT22;90;48.810;9.120;2022-07-04T09:54:18;24.30;57.50
210;DHT22;90;48.810;9.120;2022-07-04T09:56:48;24.20;57.20
210;DHT22;90;48.810;9.120;2022-07-04T09:59:17;24.20;57.30
210;DHT22;90;48.810;9.120;2022-07-04T10:01:45;24.10;58.00
210;DHT22;90;48.810;9.120;2022-07-04T10:04:12;24.10;57.30
210;DHT22;90;48.810;9.120;2022-07-04T10:06:43;24.20;56.70
210;DHT22;90;48.810;9.120;2022-07-04T10:09:14;24.20;56.90
210;DHT22;90;48.810;9.120;2022-07-04T10:11:43;24.40;56.20
210;DHT22;90;48.810;9.120;2022-07-04T10:14:12;24.30;56.70
210;DHT22;90;48.810;9.120;2022-07-04T10:16:40;24.30;56.20
210;DHT22;90;48.810;9.120;2022-07-04T10:19:08;24.30;55.80
210;DHT22;90;48.810;9.120;2022-07-04T10:21:38;24.40;55.20
210;DHT22;90;48.810;9.120;2022-07-04T10:24:06;24.40;56.10
210;DHT22;90;48.810;9.120;2022-07-04T10:26:35;24.60;54.60
210;DHT22;90;48.810;9.120;2022-07-04T10:29:03;24.70;55.70
210;DHT22;90;48.810;9.120;2022-07-04T10:31:34;24.80;55.40
210;DHT22;90;48.810;9.120;2022-07-04T10:34:02;24.90;55.00
210;DHT22;90;48.810;9.120;2022-07-04T10:36:29;24.90;54.30
210;DHT22;90;48.810;9.120;2022-07-04T10:38:58;25.00;55.00
210;DHT22;90;48.810;9.120;2022-07-04T10:41:27;25.00;53.90
210;DHT22;90;48.810;9.120;2022-07-04T10:43:57;25.10;54.00
210;DHT22;90;48.810;9.120;2022-07-04T10:46:32;25.10;53.50
210;DHT22;90;48.810;9.120;2022-07-04T10:49:03;25.10;53.60
210;DHT22;90;48.810;9.120;2022-07-04T10:51:49;25.30;52.30
210;DHT22;90;48.810;9.120;2022-07-04T10:54:18;25.30;52.90
210;DHT22;90;48.810;9.120;2022-07-04T10:56:55;25.30;51.70
210;DHT22;90;48.810;9.120;2022-07-04T10:59:25;25.20;52.20
210;DHT22;90;48.810;9.120;2022-07-04T11:04:53;25.20;53.10
210;DHT22;90;48.810;9.120;2022-07-04T11:07:22;25.10;52.90
210;DHT22;90;48.810;9.120;2022-07-04T11:10:17;25.20;53.50
210;DHT22;90;48.810;9.120;2022-07-04T11:13:20;25.30;52.60
210;DHT22;90;48.810;9.120;2022-07-04T11:16:15;25.30;53.50
210;DHT22;90;48.810;9.120;2022-07-04T11:18:44;25.30;52.80
210;DHT22;90;48.810;9.120;2022-07-04T11:21:19;25.10;52.90
210;DHT22;90;48.810;9.120;2022-07-04T11:23:50;25.20;53.40
210;DHT22;90;48.810;9.120;2022-07-04T11:26:19;25.30;53.30
210;DHT22;90;48.810;9.120;2022-07-04T11:28:47;25.40;52.70
210;DHT22;90;48.810;9.120;2022-07-04T11:31:16;25.50;52.30
210;DHT22;90;48.810;9.120;2022-07-04T11:33:44;25.50;51.80
210;DHT22;90;48.810;9.120;2022-07-04T11:36:13;25.60;50.60
210;DHT22;90;48.810;9.120;2022-07-04T11:38:55;25.60;51.20
210;DHT22;90;48.810;9.120;2022-07-04T11:41:26;25.60;51.70
210;DHT22;90;48.810;9.120;2022-07-04T11:44:12;25.70;51.20
210;DHT22;90;48.810;9.120;2022-07-04T11:47:12;25.70;51.60
210;DHT22;90;48.810;9.120;2022-07-04T11:49:46;25.70;51.70
210;DHT22;90;48.810;9.120;2022-07-04T11:52:15;25.70;52.00
210;DHT22;90;48.810;9.120;2022-07-04T11:54:44;25.80;51.80
210;DHT22;90;48.810;9.120;2022-07-04T11:57:14;25.80;54.50
210;DHT22;90;48.810;9.120;2022-07-04T11:59:42;25.90;51.90
210;DHT22;90;48.810;9.120;2022-07-04T12:02:15;25.90;51.90
210;DHT22;90;48.810;9.120;2022-07-04T12:04:43;26.00;51.30
210;DHT22;90;48.810;9.120;2022-07-04T12:07:11;26.10;51.90
210;DHT22;90;48.810;9.120;2022-07-04T12:09:40;26.20;52.10
210;DHT22;90;48.810;9.120;2022-07-04T12:12:08;26.40;50.40
210;DHT22;90;48.810;9.120;2022-07-04T12:14:36;26.50;49.90
210;DHT22;90;48.810;9.120;2022-07-04T12:17:15;26.50;50.50
210;DHT22;90;48.810;9.120;2022-07-04T12:19:53;26.60;50.00
210;DHT22;90;48.810;9.120;2022-07-04T12:22:30;26.80;50.50
210;DHT22;90;48.810;9.120;2022-07-04T12:24:58;26.90;51.00
210;DHT22;90;48.810;9.120;2022-07-04T12:27:26;26.90;48.90
210;DHT22;90;48.810;9.120;2022-07-04T12:29:53;26.90;49.80
210;DHT22;90;48.810;9.120;2022-07-04T12:32:22;26.90;49.40
210;DHT22;90;48.810;9.120;2022-07-04T12:34:49;26.90;49.60
210;DHT22;90;48.810;9.120;2022-07-04T12:37:17;26.90;49.50
210;DHT22;90;48.810;9.120;2022-07-04T12:39:44;26.70;49.80
210;DHT22;90;48.810;9.120;2022-07-04T12:42:14;26.70;50.30
210;DHT22;90;48.810;9.120;2022-07-04T12:44:43;26.80;49.20
210;DHT22;90;48.810;9.120;2022-07-04T12:47:12;26.90;49.70
210;DHT22;90;48.810;9.120;2022-07-04T12:49:44;26.80;49.90
210;DHT22;90;48.810;9.120;2022-07-04T12:52:14;26.90;49.90
210;DHT22;90;48.810;9.120;2022-07-04T12:54:42;26.90;49.10
210;DHT22;90;48.810;9.120;2022-07-04T12:57:12;26.90;48.80
210;DHT22;90;48.810;9.120;2022-07-04T12:59:41;27.10;49.20
210;DHT22;90;48.810;9.120;2022-07-04T13:02:10;27.10;49.20
210;DHT22;90;48.810;9.120;2022-07-04T13:04:38;27.00;49.20
210;DHT22;90;48.810;9.120;2022-07-04T13:07:14;27.10;50.50
210;DHT22;90;48.810;9.120;2022-07-04T13:09:42;27.20;49.00
210;DHT22;90;48.810;9.120;2022-07-04T13:12:09;27.30;48.50
210;DHT22;90;48.810;9.120;2022-07-04T13:14:52;27.40;49.50
210;DHT22;90;48.810;9.120;2022-07-04T13:17:20;27.60;48.20
210;DHT22;90;48.810;9.120;2022-07-04T13:19:47;27.70;47.90
210;DHT22;90;48.810;9.120;2022-07-04T13:22:16;27.80;47.80
210;DHT22;90;48.810;9.120;2022-07-04T13:24:43;27.60;47.20
210;DHT22;90;48.810;9.120;2022-07-04T13:27:10;27.50;48.50
210;DHT22;90;48.810;9.120;2022-07-04T13:29:38;27.60;47.90
210;DHT22;90;48.810;9.120;2022-07-04T13:32:05;27.70;49.60
210;DHT22;90;48.810;9.120;2022-07-04T13:34:32;27.90;48.40
210;DHT22;90;48.810;9.120;2022-07-04T13:37:00;27.90;48.10
210;DHT22;90;48.810;9.120;2022-07-04T13:39:28;27.90;48.70
210;DHT22;90;48.810;9.120;2022-07-04T13:41:55;27.80;48.30
210;DHT22;90;48.810;9.120;2022-07-04T13:44:23;27.60;48.60
210;DHT22;90;48.810;9.120;2022-07-04T13:46:50;27.60;48.20
210;DHT22;90;48.810;9.120;2022-07-04T13:49:17;27.50;48.20
210;DHT22;90;48.810;9.120;2022-07-04T13:51:44;27.50;48.40
210;DHT22;90;48.810;9.120;2022-07-04T13:54:11;27.40;49.00
210;DHT22;90;48.810;9.120;2022-07-04T13:56:40;27.40;50.00
210;DHT22;90;48.810;9.120;2022-07-04T13:59:08;27.70;50.20
210;DHT22;90;48.810;9.120;2022-07-04T14:01:36;28.00;47.60
210;DHT22;90;48.810;9.120;2022-07-04T14:04:03;28.10;46.50
210;DHT22;90;48.810;9.120;2022-07-04T14:06:32;28.00;47.40
210;DHT22;90;48.810;9.120;2022-07-04T14:08:59;28.20;49.40
210;DHT22;90;48.810;9.120;2022-07-04T14:11:31;28.40;48.20
210;DHT22;90;48.810;9.120;2022-07-04T14:14:03;28.50;48.80
210;DHT22;90;48.810;9.120;2022-07-04T14:16:32;28.60;47.10
210;DHT22;90;48.810;9.120;2022-07-04T14:19:00;28.30;48.00
210;DHT22;90;48.810;9.120;2022-07-04T14:21:27;28.10;48.80
210;DHT22;90;48.810;9.120;2022-07-04T14:23:54;28.00;48.70
210;DHT22;90;48.810;9.120;2022-07-04T14:26:21;27.60;48.60
210;DHT22;90;48.810;9.120;2022-07-04T14:28:50;27.30;49.40
210;DHT22;90;48.810;9.120;2022-07-04T14:31:26;27.20;49.90
210;DHT22;90;48.810;9.120;2022-07-04T14:34:02;27.20;49.90
210;DHT22;90;48.810;9.120;2022-07-04T14:36:31;27.00;50.20
210;DHT22;90;48.810;9.120;2022-07-04T14:38:58;27.00;50.60
210;DHT22;90;48.810;9.120;2022-07-04T14:41:27;27.20;50.80
210;DHT22;90;48.810;9.120;2022-07-04T14:43:57;27.30;50.10
210;DHT22;90;48.810;9.120;2022-07-04T14:46:26;27.50;50.20
210;DHT22;90;48.810;9.120;2022-07-04T14:48:56;27.80;50.00
210;DHT22;90;48.810;9.120;2022-07-04T14:51:23;28.20;49.70
210;DHT22;90;48.810;9.120;2022-07-04T14:53:51;28.50;47.90
210;DHT22;90;48.810;9.120;2022-07-04T14:56:18;28.50;47.80
210;DHT22;90;48.810;9.120;2022-07-04T14:58:46;28.70;46.90
210;DHT22;90;48.810;9.120;2022-07-04T15:01:13;28.60;46.80
210;DHT22;90;48.810;9.120;2022-07-04T15:03:41;28.70;46.60
210;DHT22;90;48.810;9.120;2022-07-04T15:06:08;28.90;46.70
210;DHT22;90;48.810;9.120;2022-07-04T15:08:35;29.00;46.90
210;DHT22;90;48.810;9.120;2022-07-04T15:11:03;29.20;46.00
210;DHT22;90;48.810;9.120;2022-07-04T15:13:30;29.40;45.60
210;DHT22;90;48.810;9.120;2022-07-04T15:15:57;29.50;44.60
210;DHT22;90;48.810;9.120;2022-07-04T15:18:24;29.20;44.30
210;DHT22;90;48.810;9.120;2022-07-04T15:20:53;28.90;45.60
210;DHT22;90;48.810;9.120;2022-07-04T15:23:37;28.30;46.30
210;DHT22;90;48.810;9.120;2022-07-04T15:26:22;28.00;46.80
210;DHT22;90;48.810;9.120;2022-07-04T15:28:49;27.80;47.20
210;DHT22;90;48.810;9.120;2022-07-04T15:31:16;27.80;47.80
210;DHT22;90;48.810;9.120;2022-07-04T15:33:43;28.00;47.30
210;DHT22;90;48.810;9.120;2022-07-04T15:36:14;28.10;46.80
210;DHT22;90;48.810;9.120;2022-07-04T15:38:42;28.30;47.80
210;DHT22;90;48.810;9.120;2022-07-04T15:41:09;28.40;46.30
210;DHT22;90;48.810;9.120;2022-07-04T15:43:41;28.70;46.30
210;DHT22;90;48.810;9.120;2022-07-04T15:46:08;28.70;45.20
210;DHT22;90;48.810;9.120;2022-07-04T15:48:35;28.80;45.50
210;DHT22;90;48.810;9.120;2022-07-04T15:51:03;28.80;44.30
210;DHT22;90;48.810;9.120;2022-07-04T15:53:32;28.90;44.80
210;DHT22;90;48.810;9.120;2022-07-04T15:55:59;29.00;43.20
210;DHT22;90;48.810;9.120;2022-07-04T15:58:26;29.00;43.50
210;DHT22;90;48.810;9.120;2022-07-04T16:00:53;29.10;43.30
210;DHT22;90;48.810;9.120;2022-07-04T16:03:20;29.30;42.80
210;DHT22;90;48.810;9.120;2022-07-04T16:05:47;29.40;42.20
210;DHT22;90;48.810;9.120;2022-07-04T16:08:15;29.20;42.30
210;DHT22;90;48.810;9.120;2022-07-04T16:10:43;28.90;42.00
210;DHT22;90;48.810;9.120;2022-07-04T16:13:10;28.50;42.90
210;DHT22;90;48.810;9.120;2022-07-04T16:15:37;28.20;44.00
210;DHT22;90;48.810;9.120;2022-07-04T16:18:05;28.20;42.80
210;DHT22;90;48.810;9.120;2022-07-04T16:20:32;28.30;42.00
210;DHT22;90;48.810;9.120;2022-07-04T16:23:01;28.50;43.20
210;DHT22;90;48.810;9.120;2022-07-04T16:25:28;28.60;41.30
210;DHT22;90;48.810;9.120;2022-07-04T16:27:57;28.80;41.20
210;DHT22;90;48.810;9.120;2022-07-04T16:30:24;28.90;40.50
210;DHT22;90;48.810;9.120;2022-07-04T16:32:52;29.20;39.50
210;DHT22;90;48.810;9.120;2022-07-04T16:35:19;29.20;38.90
210;DHT22;90;48.810;9.120;2022-07-04T16:37:46;29.30;39.20
210;DHT22;90;48.810;9.120;2022-07-04T16:40:13;29.30;37.70
210;DHT22;90;48.810;9.120;2022-07-04T16:42:40;29.30;37.30
210;DHT22;90;48.810;9.120;2022-07-04T16:45:09;29.20;36.50
210;DHT22;90;48.810;9.120;2022-07-04T16:47:36;29.00;36.60
210;DHT22;90;48.810;9.120;2022-07-04T16:50:04;29.00;37.60
210;DHT22;90;48.810;9.120;2022-07-04T16:52:32;29.10;36.80
210;DHT22;90;48.810;9.120;2022-07-04T16:54:59;29.30;36.20
210;DHT22;90;48.810;9.120;2022-07-04T16:57:26;29.50;36.10
210;DHT22;90;48.810;9.120;2022-07-04T16:59:53;29.40;36.20
210;DHT22;90;48.810;9.120;2022-07-04T17:02:22;29.40;36.00
210;DHT22;90;48.810;9.120;2022-07-04T17:04:51;29.40;36.40
210;DHT22;90;48.810;9.120;2022-07-04T17:07:18;29.50;37.20